createdAt,value
2019-05-02T00:00:10.562Z,1001.5
2019-05-02T00:01:12.707Z,1001.5
2019-05-02T00:02:14.778Z,1001.5
2019-05-02T00:03:16.921Z,1001.5
2019-05-02T00:04:21.463Z,1001.5
2019-05-02T00:05:32.017Z,1001.5
2019-05-02T00:06:42.782Z,1001.5
2019-05-02T00:07:46.167Z,1001.5
2019-05-02T00:08:48.236Z,1001.5
2019-05-02T00:09:50.688Z,1001.5
2019-05-02T00:10:53.172Z,1001.4
2019-05-02T00:11:59.210Z,1001.5
2019-05-02T00:13:01.351Z,1001.5
2019-05-02T00:14:03.432Z,1001.5
2019-05-02T00:15:05.826Z,1001.5
2019-05-02T00:16:13.995Z,1001.4
2019-05-02T00:17:25.489Z,1001.4
2019-05-02T00:18:37.069Z,1001.5
2019-05-02T00:19:51.108Z,1001.4
2019-05-02T00:21:01.313Z,1001.4
2019-05-02T00:22:05.054Z,1001.4
2019-05-02T00:23:07.521Z,1001.5
2019-05-02T00:24:09.588Z,1001.4
2019-05-02T00:25:17.193Z,1001.4
2019-05-02T00:26:25.842Z,1001.4
2019-05-02T00:27:27.977Z,1001.3
2019-05-02T00:28:47.889Z,1001.3
2019-05-02T00:29:58.595Z,1001.3
2019-05-02T00:31:02.310Z,1001.3
2019-05-02T00:32:23.539Z,1001.3
2019-05-02T00:33:34.267Z,1001.3
2019-05-02T00:34:37.741Z,1001.4
2019-05-02T00:35:47.338Z,1001.3
2019-05-02T00:36:49.618Z,1001.3
2019-05-02T00:37:51.704Z,1001.2
2019-05-02T00:38:53.728Z,1001.2
2019-05-02T00:39:55.880Z,1001.2
2019-05-02T00:41:03.639Z,1001.2
2019-05-02T00:42:13.977Z,1001.2
2019-05-02T00:43:34.289Z,1001.2
2019-05-02T00:44:46.805Z,1001.2
2019-05-02T00:45:50.147Z,1001.2
2019-05-02T00:47:10.800Z,1001.2
2019-05-02T00:48:14.325Z,1001.1
2019-05-02T00:49:24.519Z,1001.2
2019-05-02T00:50:26.591Z,1001.1
2019-05-02T00:51:28.666Z,1001.1
2019-05-02T00:52:36.611Z,1001.1
2019-05-02T00:53:39.712Z,1001.1
2019-05-02T00:54:58.656Z,1001
2019-05-02T00:56:08.998Z,1001
2019-05-02T00:57:19.864Z,1000.9
2019-05-02T00:58:31.856Z,1001
2019-05-02T00:59:42.352Z,1000.9
2019-05-02T01:00:53.101Z,1000.9
2019-05-02T01:02:05.536Z,1000.8
2019-05-02T01:03:16.128Z,1000.7
2019-05-02T01:04:27.416Z,1000.8
2019-05-02T01:05:38.366Z,1000.7
2019-05-02T01:06:49.178Z,1000.7
2019-05-02T01:08:01.003Z,1000.6
2019-05-02T01:09:11.339Z,1000.7
2019-05-02T01:10:22.375Z,1000.6
2019-05-02T01:11:33.211Z,1000.6
2019-05-02T01:12:35.356Z,1000.6
2019-05-02T01:13:55.579Z,1000.6
2019-05-02T01:15:08.258Z,1000.6
2019-05-02T01:16:19.036Z,1000.6
2019-05-02T01:17:30.849Z,1000.6
2019-05-02T01:18:41.233Z,1000.5
2019-05-02T01:19:51.371Z,1000.5
2019-05-02T01:21:02.689Z,1000.5
2019-05-02T01:22:15.823Z,1000.5
2019-05-02T01:23:27.469Z,1000.5
2019-05-02T01:24:39.521Z,1000.5
2019-05-02T01:25:52.652Z,1000.5
2019-05-02T01:27:04.483Z,1000.5
2019-05-02T01:28:17.495Z,1000.5
2019-05-02T01:29:24.770Z,1000.4
2019-05-02T01:30:42.261Z,1000.5
2019-05-02T01:31:54.612Z,1000.5
2019-05-02T01:33:06.331Z,1000.5
2019-05-02T01:34:17.935Z,1000.5
2019-05-02T01:35:21.221Z,1000.3
2019-05-02T01:36:23.939Z,1000.5
2019-05-02T01:37:26.029Z,1000.4
2019-05-02T01:38:33.765Z,1000.5
2019-05-02T01:39:42.671Z,1000.4
2019-05-02T01:40:53.057Z,1000.4
2019-05-02T01:42:04.073Z,1000.4
2019-05-02T01:43:07.310Z,1000.4
2019-05-02T01:44:09.670Z,1000.4
2019-05-02T01:45:13.142Z,1000.4
2019-05-02T01:46:22.152Z,1000.4
2019-05-02T01:47:34.046Z,1000.3
2019-05-02T01:48:45.525Z,1000.3
2019-05-02T01:49:57.086Z,1000.3
2019-05-02T01:51:11.808Z,1000.3
2019-05-02T01:52:14.358Z,1000.3
2019-05-02T01:53:34.119Z,1000.3
2019-05-02T01:54:45.639Z,1000.2
2019-05-02T01:55:57.240Z,1000.2
2019-05-02T01:57:08.602Z,1000.2
2019-05-02T01:58:20.690Z,1000.1
2019-05-02T01:59:29.015Z,1000.2
2019-05-02T02:00:45.873Z,1000.1
2019-05-02T02:01:48.019Z,1000.1
2019-05-02T02:02:54.465Z,1000.1
2019-05-02T02:03:57.014Z,1000.1
2019-05-02T02:04:59.087Z,1000.1
2019-05-02T02:06:07.911Z,1000
2019-05-02T02:07:19.908Z,1000
2019-05-02T02:08:32.396Z,1000
2019-05-02T02:09:43.880Z,1000
2019-05-02T02:10:57.986Z,1000
2019-05-02T02:12:00.275Z,999.9
2019-05-02T02:13:12.723Z,1000
2019-05-02T02:14:19.046Z,1000
2019-05-02T02:15:30.157Z,999.9
2019-05-02T02:16:39.203Z,1000
2019-05-02T02:17:42.482Z,999.9
2019-05-02T02:18:54.188Z,999.8
2019-05-02T02:20:14.008Z,999.8
2019-05-02T02:21:25.496Z,999.8
2019-05-02T02:22:29.496Z,999.7
2019-05-02T02:23:49.582Z,999.8
2019-05-02T02:25:02.518Z,999.8
2019-05-02T02:26:11.872Z,999.7
2019-05-02T02:27:25.696Z,999.7
2019-05-02T02:28:33.170Z,999.7
2019-05-02T02:29:43.921Z,999.7
2019-05-02T02:30:47.215Z,999.7
2019-05-02T02:31:49.347Z,999.8
2019-05-02T02:32:51.444Z,999.7
2019-05-02T02:33:53.900Z,999.7
2019-05-02T02:34:56.957Z,999.7
2019-05-02T02:36:14.567Z,999.7
2019-05-02T02:37:17.337Z,999.7
2019-05-02T02:38:19.696Z,999.7
2019-05-02T02:39:22.339Z,999.6
2019-05-02T02:40:35.391Z,999.6
2019-05-02T02:41:37.933Z,999.6
2019-05-02T02:42:40.701Z,999.6
2019-05-02T02:43:42.797Z,999.5
2019-05-02T02:44:45.304Z,999.6
2019-05-02T02:45:59.328Z,999.6
2019-05-02T02:47:02.348Z,999.5
2019-05-02T02:48:04.427Z,999.5
2019-05-02T02:49:06.821Z,999.5
2019-05-02T02:50:15.195Z,999.5
2019-05-02T02:51:26.192Z,999.3
2019-05-02T02:52:28.483Z,999.4
2019-05-02T02:53:31.679Z,999.5
2019-05-02T02:54:43.569Z,999.4
2019-05-02T02:55:47.683Z,999.3
2019-05-02T02:56:50.383Z,999.3
2019-05-02T02:57:58.309Z,999.4
2019-05-02T02:59:08.708Z,999.4
2019-05-02T03:00:11.767Z,999.3
2019-05-02T03:01:29.429Z,999.4
2019-05-02T03:02:33.524Z,999.4
2019-05-02T03:03:36.186Z,999.4
2019-05-02T03:04:46.327Z,999.3
2019-05-02T03:05:48.575Z,999.3
2019-05-02T03:06:51.242Z,999.3
2019-05-02T03:07:53.290Z,999.3
2019-05-02T03:09:08.809Z,999.2
2019-05-02T03:10:11.190Z,999.3
2019-05-02T03:11:25.158Z,999.3
2019-05-02T03:12:27.712Z,999.3
2019-05-02T03:13:30.193Z,999.3
2019-05-02T03:14:32.317Z,999.2
2019-05-02T03:15:34.366Z,999.2
2019-05-02T03:16:49.281Z,999.2
2019-05-02T03:17:51.686Z,999.2
2019-05-02T03:18:53.764Z,999.2
2019-05-02T03:20:03.795Z,999.2
2019-05-02T03:21:06.385Z,999.2
2019-05-02T03:22:09.034Z,999.1
2019-05-02T03:23:21.646Z,999.2
2019-05-02T03:24:26.211Z,999.1
2019-05-02T03:25:51.325Z,999.1
2019-05-02T03:26:58.196Z,999.1
2019-05-02T03:28:01.157Z,999.1
2019-05-02T03:29:03.935Z,999.1
2019-05-02T03:30:06.349Z,999.1
2019-05-02T03:31:29.421Z,999.1
2019-05-02T03:32:36.728Z,999.1
2019-05-02T03:33:58.997Z,999
2019-05-02T03:35:04.167Z,999.1
2019-05-02T03:36:34.257Z,999.1
2019-05-02T03:37:51.256Z,999.1
2019-05-02T03:38:55.467Z,999
2019-05-02T03:40:00.886Z,999
2019-05-02T03:41:03.366Z,999.1
2019-05-02T03:42:06.083Z,999
2019-05-02T03:43:08.523Z,999
2019-05-02T03:44:25.585Z,999
2019-05-02T03:45:42.757Z,999
2019-05-02T03:46:45.216Z,998.9
2019-05-02T03:47:47.305Z,999
2019-05-02T03:48:50.405Z,998.9
2019-05-02T03:49:53.130Z,998.9
2019-05-02T03:50:55.542Z,998.9
2019-05-02T03:52:05.782Z,998.9
2019-05-02T03:53:08.510Z,998.9
2019-05-02T03:54:10.916Z,998.9
2019-05-02T03:55:13.614Z,998.9
2019-05-02T03:56:16.415Z,998.9
2019-05-02T03:57:35.549Z,998.9
2019-05-02T03:58:57.863Z,998.9
2019-05-02T04:00:01.118Z,998.9
2019-05-02T04:01:04.188Z,998.9
2019-05-02T04:02:06.963Z,998.9
2019-05-02T04:03:21.769Z,998.9
2019-05-02T04:04:24.477Z,998.9
2019-05-02T04:05:26.541Z,998.8
2019-05-02T04:06:35.250Z,998.8
2019-05-02T04:07:42.266Z,998.9
2019-05-02T04:08:45.684Z,998.8
2019-05-02T04:09:47.755Z,998.8
2019-05-02T04:10:59.645Z,998.8
2019-05-02T04:12:04.035Z,998.8
2019-05-02T04:13:22.659Z,998.9
2019-05-02T04:14:38.859Z,998.9
2019-05-02T04:15:41.888Z,998.9
2019-05-02T04:17:59.497Z,998.9
2019-05-02T04:19:01.902Z,998.8
2019-05-02T04:20:12.600Z,998.8
2019-05-02T04:21:15.222Z,998.8
2019-05-02T04:22:17.628Z,998.8
2019-05-02T04:23:27.476Z,998.8
2019-05-02T04:24:31.830Z,998.8
2019-05-02T04:25:35.581Z,998.8
2019-05-02T04:26:37.612Z,998.8
2019-05-02T04:27:39.985Z,998.7
2019-05-02T04:28:51.525Z,998.8
2019-05-02T04:29:55.605Z,998.7
2019-05-02T04:30:58.255Z,998.8
2019-05-02T04:32:11.871Z,998.7
2019-05-02T04:33:16.558Z,998.7
2019-05-02T04:34:18.965Z,998.7
2019-05-02T04:35:21.359Z,998.8
2019-05-02T04:36:23.823Z,998.8
2019-05-02T04:37:26.190Z,998.8
2019-05-02T04:38:47.566Z,998.7
2019-05-02T04:40:03.426Z,998.8
2019-05-02T04:41:28.407Z,998.8
2019-05-02T04:42:39.501Z,998.8
2019-05-02T04:43:58.649Z,998.8
2019-05-02T04:45:28.672Z,998.8
2019-05-02T04:47:18.285Z,998.8
2019-05-02T04:48:24.767Z,998.8
2019-05-02T04:49:38.988Z,998.8
2019-05-02T04:50:41.423Z,998.8
2019-05-02T04:52:05.740Z,998.8
2019-05-02T04:53:40.847Z,998.7
2019-05-02T04:54:51.755Z,998.8
2019-05-02T04:56:07.617Z,998.8
2019-05-02T04:57:13.199Z,998.8
2019-05-02T04:58:32.123Z,998.8
2019-05-02T04:59:42.494Z,998.8
2019-05-02T05:00:51.259Z,998.7
2019-05-02T05:02:04.280Z,998.7
2019-05-02T05:03:18.197Z,998.7
2019-05-02T05:04:23.570Z,998.7
2019-05-02T05:05:31.472Z,998.7
2019-05-02T05:06:33.983Z,998.7
2019-05-02T05:07:46.359Z,998.7
2019-05-02T05:08:51.695Z,998.7
2019-05-02T05:10:03.492Z,998.6
2019-05-02T05:11:08.013Z,998.7
2019-05-02T05:12:10.136Z,998.7
2019-05-02T05:13:22.963Z,998.6
2019-05-02T05:14:43.153Z,998.6
2019-05-02T05:15:52.035Z,998.6
2019-05-02T05:16:58.073Z,998.6
2019-05-02T05:18:10.305Z,998.7
2019-05-02T05:19:18.103Z,998.7
2019-05-02T05:20:33.957Z,998.7
2019-05-02T05:21:42.109Z,998.6
2019-05-02T05:22:47.766Z,998.6
2019-05-02T05:23:57.196Z,998.7
2019-05-02T05:25:03.917Z,998.7
2019-05-02T05:26:08.760Z,998.7
2019-05-02T05:27:18.746Z,998.7
2019-05-02T05:28:24.865Z,998.7
2019-05-02T05:29:29.468Z,998.7
2019-05-02T05:30:31.551Z,998.7
2019-05-02T05:31:33.685Z,998.7
2019-05-02T05:32:37.787Z,998.6
2019-05-02T05:33:40.238Z,998.7
2019-05-02T05:34:42.389Z,998.7
2019-05-02T05:35:52.627Z,998.7
2019-05-02T05:36:55.129Z,998.7
2019-05-02T05:37:59.768Z,998.7
2019-05-02T05:39:08.270Z,998.7
2019-05-02T05:40:13.671Z,998.7
2019-05-02T05:41:23.189Z,998.8
2019-05-02T05:42:33.541Z,998.7
2019-05-02T05:43:38.237Z,998.7
2019-05-02T05:44:40.615Z,998.7
2019-05-02T05:46:01.892Z,998.8
2019-05-02T05:47:21.369Z,998.6
2019-05-02T05:48:23.855Z,998.6
2019-05-02T05:49:28.446Z,998.6
2019-05-02T05:50:37.563Z,998.6
2019-05-02T05:51:43.420Z,998.6
2019-05-02T05:52:47.450Z,998.6
2019-05-02T05:53:57.235Z,998.5
2019-05-02T05:55:05.367Z,998.6
2019-05-02T05:56:22.131Z,998.6
2019-05-02T05:57:24.206Z,998.6
2019-05-02T05:58:28.617Z,998.6
2019-05-02T05:59:32.423Z,998.5
2019-05-02T06:00:34.484Z,998.6
2019-05-02T06:01:38.625Z,998.6
2019-05-02T06:03:01.896Z,998.6
2019-05-02T06:04:24.031Z,998.5
2019-05-02T06:05:42.236Z,998.6
2019-05-02T06:06:44.383Z,998.5
2019-05-02T06:07:47.711Z,998.5
2019-05-02T06:08:55.399Z,998.6
2019-05-02T06:10:07.661Z,998.6
2019-05-02T06:11:19.931Z,998.6
2019-05-02T06:12:35.121Z,998.5
2019-05-02T06:13:42.847Z,998.5
2019-05-02T06:15:01.558Z,998.5
2019-05-02T06:16:10.397Z,998.5
2019-05-02T06:17:18.316Z,998.4
2019-05-02T06:18:41.967Z,998.5
2019-05-02T06:19:53.454Z,998.5
2019-05-02T06:21:03.148Z,998.4
2019-05-02T06:22:24.279Z,998.5
2019-05-02T06:23:35.967Z,998.5
2019-05-02T06:24:50.715Z,998.5
2019-05-02T06:25:54.072Z,998.5
2019-05-02T06:26:56.155Z,998.5
2019-05-02T06:28:05.162Z,998.4
2019-05-02T06:29:18.334Z,998.5
2019-05-02T06:30:30.981Z,998.5
2019-05-02T06:31:42.961Z,998.3
2019-05-02T06:32:54.835Z,998.4
2019-05-02T06:34:06.943Z,998.5
2019-05-02T06:35:10.235Z,998.5
2019-05-02T06:36:12.372Z,998.4
2019-05-02T06:37:15.995Z,998.5
2019-05-02T06:38:22.910Z,998.4
2019-05-02T06:39:31.860Z,998.4
2019-05-02T06:40:44.594Z,998.3
2019-05-02T06:41:57.147Z,998.4
2019-05-02T06:43:09.561Z,998.4
2019-05-02T06:44:13.321Z,998.3
2019-05-02T06:45:26.816Z,998.3
2019-05-02T06:46:29.982Z,998.4
2019-05-02T06:47:41.388Z,998.4
2019-05-02T06:48:52.183Z,998.3
2019-05-02T06:50:01.014Z,998.3
2019-05-02T06:51:05.545Z,998.4
2019-05-02T06:52:27.127Z,998.3
2019-05-02T06:53:36.339Z,998.3
2019-05-02T06:54:57.909Z,998.3
2019-05-02T06:56:01.116Z,998.4
2019-05-02T06:57:03.611Z,998.3
2019-05-02T06:58:08.386Z,998.4
2019-05-02T06:59:18.343Z,998.4
2019-05-02T07:00:44.495Z,998.4
2019-05-02T07:02:01.119Z,998.3
2019-05-02T07:03:10.085Z,998.3
2019-05-02T07:04:23.248Z,998.4
2019-05-02T07:05:28.257Z,998.3
2019-05-02T07:06:57.150Z,998.1
2019-05-02T07:08:13.519Z,998.4
2019-05-02T07:09:16.575Z,998.3
2019-05-02T07:10:25.308Z,998.3
2019-05-02T07:11:59.707Z,998.3
2019-05-02T07:13:14.596Z,998.4
2019-05-02T07:14:23.338Z,998.3
2019-05-02T07:15:27.691Z,998.4
2019-05-02T07:16:39.161Z,998.4
2019-05-02T07:17:41.264Z,998.4
2019-05-02T07:18:49.594Z,998.3
2019-05-02T07:19:52.234Z,998.4
2019-05-02T07:20:54.318Z,998.3
2019-05-02T07:22:03.761Z,998.4
2019-05-02T07:23:16.014Z,998.4
2019-05-02T07:24:20.262Z,998.4
2019-05-02T07:25:33.707Z,998.4
2019-05-02T07:26:35.812Z,998.5
2019-05-02T07:27:39.520Z,998.4
2019-05-02T07:28:47.496Z,998.4
2019-05-02T07:29:57.616Z,998.4
2019-05-02T07:31:01.504Z,998.4
2019-05-02T07:32:24.553Z,998.4
2019-05-02T07:33:37.401Z,998.4
2019-05-02T07:34:48.101Z,998.5
2019-05-02T07:36:00.007Z,998.4
2019-05-02T07:37:03.693Z,998.4
2019-05-02T07:38:20.102Z,998.3
2019-05-02T07:39:29.276Z,998.4
2019-05-02T07:40:31.629Z,998.4
2019-05-02T07:41:36.952Z,998.4
2019-05-02T07:42:43.172Z,998.5
2019-05-02T07:43:45.730Z,998.5
2019-05-02T07:44:47.847Z,998.4
2019-05-02T07:45:49.996Z,998.4
2019-05-02T07:47:01.949Z,998.4
2019-05-02T07:48:06.469Z,998.4
2019-05-02T07:49:08.659Z,998.5
2019-05-02T07:50:12.138Z,998.5
2019-05-02T07:51:21.224Z,998.3
2019-05-02T07:52:28.808Z,998.4
2019-05-02T07:53:38.052Z,998.4
2019-05-02T07:54:40.212Z,998.4
2019-05-02T07:55:43.012Z,998.4
2019-05-02T07:56:53.108Z,998.3
2019-05-02T07:57:56.455Z,998.4
2019-05-02T07:58:58.592Z,998.4
2019-05-02T08:00:02.885Z,998.4
2019-05-02T08:01:13.341Z,998.4
2019-05-02T08:02:24.982Z,998.4
2019-05-02T08:03:34.734Z,998.4
2019-05-02T08:04:37.119Z,998.5
2019-05-02T08:05:39.240Z,998.4
2019-05-02T08:06:46.511Z,998.4
2019-05-02T08:07:55.223Z,998.5
2019-05-02T08:09:07.039Z,998.4
2019-05-02T08:10:11.083Z,998.5
2019-05-02T08:11:18.056Z,998.5
2019-05-02T08:12:20.151Z,998.4
2019-05-02T08:13:22.295Z,998.5
2019-05-02T08:14:24.312Z,998.5
2019-05-02T08:15:37.709Z,998.5
2019-05-02T08:16:39.791Z,998.5
2019-05-02T08:17:42.247Z,998.5
2019-05-02T08:18:44.389Z,998.5
2019-05-02T08:19:46.445Z,998.5
2019-05-02T08:20:55.906Z,998.5
2019-05-02T08:21:59.305Z,998.4
2019-05-02T08:23:25.749Z,998.4
2019-05-02T08:24:37.824Z,998.4
2019-05-02T08:25:46.474Z,998.4
2019-05-02T08:26:48.632Z,998.3
2019-05-02T08:28:00.895Z,998.4
2019-05-02T08:29:16.937Z,998.4
2019-05-02T08:30:19.003Z,998.4
2019-05-02T08:31:21.327Z,998.4
2019-05-02T08:32:23.402Z,998.4
2019-05-02T08:33:35.692Z,998.4
2019-05-02T08:34:38.501Z,998.4
2019-05-02T08:35:40.588Z,998.3
2019-05-02T08:36:42.724Z,998.3
2019-05-02T08:37:44.738Z,998.4
2019-05-02T08:38:53.475Z,998.3
2019-05-02T08:39:57.281Z,998.3
2019-05-02T08:40:59.745Z,998.4
2019-05-02T08:42:01.827Z,998.4
2019-05-02T08:43:11.026Z,998.4
2019-05-02T08:44:18.100Z,998.3
2019-05-02T08:45:20.313Z,998.3
2019-05-02T08:46:22.429Z,998.4
2019-05-02T08:47:30.532Z,998.4
2019-05-02T08:48:41.690Z,998.3
2019-05-02T08:49:54.603Z,998.3
2019-05-02T08:50:58.620Z,998.3
2019-05-02T08:52:00.707Z,998.4
2019-05-02T08:53:03.184Z,998.3
2019-05-02T08:54:05.294Z,998.4
2019-05-02T08:55:11.018Z,998.4
2019-05-02T08:56:21.252Z,998.4
2019-05-02T08:57:24.842Z,998.3
2019-05-02T08:58:27.087Z,998.4
2019-05-02T08:59:29.207Z,998.4
2019-05-02T09:00:37.394Z,998.4
2019-05-02T09:01:49.323Z,998.3
2019-05-02T09:03:02.499Z,998.4
2019-05-02T09:04:06.994Z,998.3
2019-05-02T09:05:09.068Z,998.3
2019-05-02T09:06:11.192Z,998.2
2019-05-02T09:07:13.311Z,998.2
2019-05-02T09:08:16.949Z,998.3
2019-05-02T09:09:27.937Z,998.4
2019-05-02T09:10:31.731Z,998.3
2019-05-02T09:11:34.146Z,998.4
2019-05-02T09:12:41.902Z,998.4
2019-05-02T09:13:47.479Z,998.4
2019-05-02T09:14:51.847Z,998.4
2019-05-02T09:15:54.811Z,998.4
2019-05-02T09:17:08.045Z,998.4
2019-05-02T09:18:18.444Z,998.4
2019-05-02T09:19:26.342Z,998.4
2019-05-02T09:20:28.636Z,998.5
2019-05-02T09:21:36.020Z,998.4
2019-05-02T09:22:38.499Z,998.5
2019-05-02T09:23:44.035Z,998.4
2019-05-02T09:24:46.205Z,998.4
2019-05-02T09:25:48.335Z,998.5
2019-05-02T09:26:52.222Z,998.4
2019-05-02T09:27:54.699Z,998.3
2019-05-02T09:29:05.560Z,998.4
2019-05-02T09:30:08.069Z,998.4
2019-05-02T09:31:12.276Z,998.4
2019-05-02T09:32:22.576Z,998.5
2019-05-02T09:33:28.491Z,998.3
2019-05-02T09:34:32.192Z,998.4
2019-05-02T09:35:34.724Z,998.4
2019-05-02T09:36:38.472Z,998.4
2019-05-02T09:37:42.169Z,998.4
2019-05-02T09:38:44.305Z,998.3
2019-05-02T09:39:59.163Z,998.4
2019-05-02T09:41:19.504Z,998.4
2019-05-02T09:42:37.482Z,998.4
2019-05-02T09:43:39.883Z,998.4
2019-05-02T09:44:53.241Z,998.5
2019-05-02T09:45:59.257Z,998.4
2019-05-02T09:47:03.858Z,998.4
2019-05-02T09:48:08.699Z,998.4
2019-05-02T09:49:16.666Z,998.3
2019-05-02T09:50:29.334Z,998.5
2019-05-02T09:51:45.274Z,998.3
2019-05-02T09:53:04.596Z,998.4
2019-05-02T09:54:06.929Z,998.3
2019-05-02T09:55:09.386Z,998.4
2019-05-02T09:56:13.921Z,998.3
2019-05-02T09:57:15.998Z,998.4
2019-05-02T09:58:23.844Z,998.3
2019-05-02T09:59:32.772Z,998.3
2019-05-02T10:00:36.643Z,998.3
2019-05-02T10:01:39.034Z,998.3
2019-05-02T10:02:43.448Z,998.4
2019-05-02T10:03:45.586Z,998.3
2019-05-02T10:04:47.658Z,998.3
2019-05-02T10:05:52.541Z,998.3
2019-05-02T10:06:54.775Z,998.3
2019-05-02T10:08:02.878Z,998.4
2019-05-02T10:09:23.896Z,998.3
2019-05-02T10:10:29.497Z,998.3
2019-05-02T10:11:33.856Z,998.3
2019-05-02T10:12:35.919Z,998.3
2019-05-02T10:13:38.088Z,998.3
2019-05-02T10:14:42.312Z,998.2
2019-05-02T10:15:44.440Z,998.2
2019-05-02T10:16:46.824Z,998.2
2019-05-02T10:17:48.883Z,998.3
2019-05-02T10:18:53.169Z,998.2
2019-05-02T10:19:57.479Z,998.2
2019-05-02T10:20:59.630Z,998.2
2019-05-02T10:22:02.230Z,998.3
2019-05-02T10:23:04.298Z,998.3
2019-05-02T10:24:07.067Z,998.2
2019-05-02T10:25:09.143Z,998.2
2019-05-02T10:26:24.350Z,998.2
2019-05-02T10:27:27.605Z,998.3
2019-05-02T10:28:31.906Z,998.3
2019-05-02T10:29:34.262Z,998.3
2019-05-02T10:30:36.701Z,998.2
2019-05-02T10:31:39.094Z,998.2
2019-05-02T10:32:52.723Z,998.2
2019-05-02T10:33:59.509Z,998.2
2019-05-02T10:35:04.575Z,998.2
2019-05-02T10:36:19.380Z,998.2
2019-05-02T10:37:39.550Z,998.1
2019-05-02T10:38:44.520Z,998.2
2019-05-02T10:40:07.711Z,998.2
2019-05-02T10:41:19.139Z,998.1
2019-05-02T10:42:22.313Z,998
2019-05-02T10:43:24.747Z,998
2019-05-02T10:44:32.476Z,998.1
2019-05-02T10:45:39.133Z,998.1
2019-05-02T10:46:41.904Z,998.1
2019-05-02T10:47:43.977Z,998
2019-05-02T10:48:46.074Z,998.1
2019-05-02T10:49:48.416Z,998
2019-05-02T10:50:52.652Z,998
2019-05-02T10:51:54.963Z,998.1
2019-05-02T10:52:57.101Z,998
2019-05-02T10:53:59.169Z,998
2019-05-02T10:55:02.945Z,998
2019-05-02T10:56:05.065Z,997.9
2019-05-02T10:57:07.534Z,998
2019-05-02T10:58:09.687Z,997.9
2019-05-02T10:59:14.302Z,997.9
2019-05-02T11:00:16.370Z,997.9
2019-05-02T11:01:18.745Z,997.9
2019-05-02T11:02:22.494Z,997.8
2019-05-02T11:03:24.619Z,997.8
2019-05-02T11:04:29.535Z,997.9
2019-05-02T11:05:36.962Z,997.8
2019-05-02T11:06:46.240Z,997.8
2019-05-02T11:07:48.496Z,997.8
2019-05-02T11:08:52.745Z,997.8
2019-05-02T11:10:02.929Z,997.9
2019-05-02T11:11:08.745Z,997.7
2019-05-02T11:12:16.318Z,997.8
2019-05-02T11:13:48.408Z,997.7
2019-05-02T11:15:07.351Z,997.6
2019-05-02T11:16:09.431Z,997.6
2019-05-02T11:17:18.266Z,997.7
2019-05-02T11:18:39.345Z,997.6
2019-05-02T11:19:46.945Z,997.7
2019-05-02T11:20:49.296Z,997.7
2019-05-02T11:21:59.169Z,997.6
2019-05-02T11:23:02.783Z,997.5
2019-05-02T11:24:05.131Z,997.6
2019-05-02T11:25:07.250Z,997.6
2019-05-02T11:26:09.388Z,997.7
2019-05-02T11:27:26.918Z,997.6
2019-05-02T11:28:29.049Z,997.5
2019-05-02T11:29:32.510Z,997.6
2019-05-02T11:30:34.586Z,997.6
2019-05-02T11:31:37.141Z,997.5
2019-05-02T11:32:39.238Z,997.5
2019-05-02T11:33:43.383Z,997.3
2019-05-02T11:34:45.479Z,997.5
2019-05-02T11:35:51.461Z,997.5
2019-05-02T11:36:55.674Z,997.5
2019-05-02T11:37:58.042Z,997.7
2019-05-02T11:39:19.468Z,997.5
2019-05-02T11:41:03.051Z,997.5
2019-05-02T11:42:06.225Z,997.6
2019-05-02T11:43:08.645Z,997.6
2019-05-02T11:44:12.536Z,997.5
2019-05-02T11:45:15.036Z,997.6
2019-05-02T11:46:17.192Z,997.6
2019-05-02T11:47:26.648Z,997.6
2019-05-02T11:48:28.818Z,997.5
2019-05-02T11:49:32.276Z,997.6
2019-05-02T11:50:36.051Z,997.5
2019-05-02T11:51:38.125Z,997.6
2019-05-02T11:52:42.034Z,997.5
2019-05-02T11:53:44.572Z,997.6
2019-05-02T11:54:48.939Z,997.6
2019-05-02T11:55:53.463Z,997.7
2019-05-02T11:57:12.016Z,997.5
2019-05-02T11:58:14.104Z,997.6
2019-05-02T11:59:27.583Z,997.5
2019-05-02T12:00:33.589Z,997.6
2019-05-02T12:01:42.558Z,997.5
2019-05-02T12:03:04.485Z,997.6
2019-05-02T12:04:16.711Z,997.5
2019-05-02T12:05:18.989Z,997.7
2019-05-02T12:06:23.166Z,997.5
2019-05-02T12:07:25.725Z,997.5
2019-05-02T12:08:27.847Z,997.6
2019-05-02T12:09:32.114Z,997.6
2019-05-02T12:10:36.974Z,997.6
2019-05-02T12:11:39.133Z,997.5
2019-05-02T12:12:43.312Z,997.5
2019-05-02T12:13:52.585Z,997.6
2019-05-02T12:14:59.090Z,997.6
2019-05-02T12:16:02.967Z,997.5
2019-05-02T12:17:05.197Z,997.5
2019-05-02T12:18:07.557Z,997.6
2019-05-02T12:19:15.065Z,997.6
2019-05-02T12:20:17.203Z,997.6
2019-05-02T12:21:19.735Z,997.6
2019-05-02T12:22:24.437Z,997.6
2019-05-02T12:23:26.679Z,997.6
2019-05-02T12:24:28.780Z,997.6
2019-05-02T12:25:33.490Z,997.6
2019-05-02T12:26:35.603Z,997.7
2019-05-02T12:27:37.970Z,997.6
2019-05-02T12:28:40.499Z,997.6
2019-05-02T12:29:44.719Z,997.6
2019-05-02T12:31:02.965Z,997.5
2019-05-02T12:32:17.834Z,997.5
2019-05-02T12:33:19.984Z,997.6
2019-05-02T12:34:24.121Z,997.5
2019-05-02T12:35:26.508Z,997.5
2019-05-02T12:36:28.645Z,997.5
2019-05-02T12:37:32.956Z,997.5
2019-05-02T12:38:35.085Z,997.4
2019-05-02T12:39:37.164Z,997.4
2019-05-02T12:40:39.245Z,997.5
2019-05-02T12:41:44.078Z,997.5
2019-05-02T12:42:48.325Z,997.3
2019-05-02T12:43:52.657Z,997.4
2019-05-02T12:44:55.028Z,997.4
2019-05-02T12:45:57.174Z,997.5
2019-05-02T12:46:59.243Z,997.5
2019-05-02T12:48:02.690Z,997.5
2019-05-02T12:49:05.101Z,997.5
2019-05-02T12:50:07.183Z,997.3
2019-05-02T12:51:09.335Z,997.3
2019-05-02T12:52:13.209Z,997.3
2019-05-02T12:53:15.332Z,997.4
2019-05-02T12:54:17.407Z,997.4
2019-05-02T12:55:19.494Z,997.4
2019-05-02T12:56:23.841Z,997.4
2019-05-02T12:57:25.922Z,997.4
2019-05-02T12:58:28.070Z,997.4
2019-05-02T12:59:32.428Z,997.4
2019-05-02T13:00:34.505Z,997.3
2019-05-02T13:01:36.594Z,997.4
2019-05-02T13:02:38.672Z,997.4
2019-05-02T13:03:43.948Z,997.5
2019-05-02T13:04:46.019Z,997.4
2019-05-02T13:05:48.190Z,997.3
2019-05-02T13:06:50.294Z,997.4
2019-05-02T13:07:55.774Z,997.3
2019-05-02T13:08:57.939Z,997.3
2019-05-02T13:10:01.868Z,997.3
2019-05-02T13:11:07.163Z,997.2
2019-05-02T13:12:09.515Z,997.3
2019-05-02T13:13:12.571Z,997.2
2019-05-02T13:14:20.113Z,997.2
2019-05-02T13:15:24.640Z,997.2
2019-05-02T13:16:26.917Z,997.1
2019-05-02T13:17:29.834Z,997.2
2019-05-02T13:18:52.177Z,997.2
2019-05-02T13:20:07.652Z,997.1
2019-05-02T13:21:17.045Z,997.1
2019-05-02T13:22:24.999Z,997.2
2019-05-02T13:23:33.722Z,997.2
2019-05-02T13:24:39.152Z,997.1
2019-05-02T13:25:42.625Z,997.2
2019-05-02T13:26:45.157Z,997.1
2019-05-02T13:27:48.419Z,997
2019-05-02T13:28:51.992Z,997.2
2019-05-02T13:29:54.080Z,997.2
2019-05-02T13:30:56.467Z,997.1
2019-05-02T13:31:58.829Z,997.1
2019-05-02T13:33:03.149Z,997.1
2019-05-02T13:34:10.961Z,997.1
2019-05-02T13:35:17.150Z,997.1
2019-05-02T13:36:19.301Z,997.1
2019-05-02T13:37:23.364Z,997.1
2019-05-02T13:38:25.439Z,997.1
2019-05-02T13:39:27.571Z,997.1
2019-05-02T13:40:29.649Z,997.1
2019-05-02T13:41:35.018Z,997.1
2019-05-02T13:42:37.394Z,997
2019-05-02T13:43:39.561Z,997.1
2019-05-02T13:44:43.769Z,997.1
2019-05-02T13:45:46.135Z,996.9
2019-05-02T13:46:48.235Z,997
2019-05-02T13:47:52.190Z,997
2019-05-02T13:48:54.603Z,997
2019-05-02T13:50:03.558Z,997.1
2019-05-02T13:51:06.445Z,997
2019-05-02T13:52:08.598Z,997
2019-05-02T13:53:12.455Z,997
2019-05-02T13:54:14.534Z,997
2019-05-02T13:55:16.671Z,997
2019-05-02T13:56:18.749Z,997.1
2019-05-02T13:57:22.123Z,997
2019-05-02T13:58:31.110Z,997
2019-05-02T13:59:35.544Z,997
2019-05-02T14:00:37.975Z,997
2019-05-02T14:01:40.106Z,997
2019-05-02T14:02:44.229Z,996.9
2019-05-02T14:03:46.299Z,996.9
2019-05-02T14:04:48.441Z,996.9
2019-05-02T14:05:54.030Z,996.9
2019-05-02T14:06:56.404Z,996.9
2019-05-02T14:07:58.892Z,996.9
2019-05-02T14:09:07.414Z,996.9
2019-05-02T14:10:24.059Z,996.8
2019-05-02T14:11:26.154Z,996.9
2019-05-02T14:12:28.244Z,996.9
2019-05-02T14:13:31.870Z,996.9
2019-05-02T14:14:33.943Z,996.9
2019-05-02T14:15:36.090Z,996.8
2019-05-02T14:16:38.150Z,996.7
2019-05-02T14:17:42.501Z,996.8
2019-05-02T14:18:44.593Z,996.8
2019-05-02T14:19:46.694Z,996.8
2019-05-02T14:20:48.831Z,996.8
2019-05-02T14:21:52.139Z,996.7
2019-05-02T14:22:54.281Z,996.8
2019-05-02T14:23:56.356Z,996.8
2019-05-02T14:24:58.430Z,996.8